Airfield :
LOGIN :

Register | Disclaimer

   EN    FR    IT 

 










Legend :    VFR   Marginal VFR   IFR   Intensive IFR   Very Intensive IFR
Visi :
Ceiling :
>= 8 km
>= 3000ft
5 to 8 km
1000 to 3000 ft
1500m to 5 km
500 to 1000 ft
800 to 1500m
200 to 500 ft
< 800m
< 200 ft
Symbols :   Thunderstorms  Fog  Heavy snow  Heavy precipitations  Wind > 20 kt
SIGMETs :     Misc.  Thunderstorms  Icing  Turbulence  Mountain Waves  Volcanic Ashes







- Airport Elevation : 13 ft
- IATA code : OST


EBOS - Oostend bruges Int.

CURRENT METAR :
  • 180620Z 19006KT 150V220 9999 FEW005 15/13 Q1004 TEMPO BKN005

EXPIRED METARs :
  • 180550Z 18006KT 9999 -RA FEW004 SCT005 14/13 Q1004 TEMPO BKN005
  • 180520Z 18006KT 150V210 9999 -RA FEW007 15/13 Q1004 TEMPO BKN007
  • 180450Z 18008KT 9999 -RA NSC 15/13 Q1004 NOSIG
  • 180420Z 19008KT 9999 -RA NSC 15/13 Q1005 NOSIG
  • 180350Z 19009KT 9999 -RA NSC 15/14 Q1005 NOSIG

TAF TAF EBOS
Valid from the 18 at 06:00 until the 19 at 12:00 UTC


180500Z 1806/1912 17006KT 9999 SCT008 BKN012
TEMPO 1806/1811 4000 -RA -RADZ SCT004 BKN007
PROB30
TEMPO 1806/1809 2500 RADZ BKN003
BECMG 1810/1812 27012KT SCT020 SCT040
BECMG 1813/1815 24015G25KT
BECMG 1822/1824 22013KT
PROB30
TEMPO 1904/1912 SHRA
No reported NOTAMs for that airfield.



MET'MAP, your aeronautical weather chart ! - Copyright ORBIFLY December 2007 - Disclaimer

ORBIFLY MET'MAP TEAM :

Programming & Development : Alexandra Zaïnal
Concept & Development : Baudouin d'Aumeries
Co-Development & Prog : Marc-Olivier Méhu
Technical & hardware support : Manuel Goepfert

Contact : metmap@orbifly.com




SOURCES & CREDITS :

   NOAA